createdAt,value
2023-02-14T00:01:52.068Z,5.00
2023-02-14T00:04:20.656Z,5.20
2023-02-14T00:06:51.090Z,4.30
2023-02-14T00:09:20.282Z,5.00
2023-02-14T00:11:48.970Z,5.00
2023-02-14T00:14:36.768Z,4.60
2023-02-14T00:17:05.174Z,4.30
2023-02-14T00:19:36.060Z,4.20
2023-02-14T00:22:05.003Z,4.40
2023-02-14T00:24:33.637Z,4.20
2023-02-14T00:27:02.469Z,4.50
2023-02-14T00:29:32.152Z,4.60
2023-02-14T00:32:01.142Z,3.70
2023-02-14T00:34:29.905Z,4.10
2023-02-14T00:37:00.578Z,3.90
2023-02-14T00:39:28.993Z,4.20
2023-02-14T00:41:57.258Z,4.20
2023-02-14T00:44:26.485Z,4.40
2023-02-14T00:46:54.934Z,4.40
2023-02-14T00:49:24.989Z,4.80
2023-02-14T00:51:53.864Z,4.40
2023-02-14T00:54:22.924Z,4.20
2023-02-14T00:56:52.933Z,4.40
2023-02-14T00:59:21.547Z,4.50
2023-02-14T01:01:49.993Z,4.70
2023-02-14T01:04:18.480Z,4.10
2023-02-14T01:06:47.925Z,4.00
2023-02-14T01:09:16.748Z,4.30
2023-02-14T01:11:45.677Z,4.20
2023-02-14T01:14:16.504Z,4.50
2023-02-14T01:16:50.711Z,4.40
2023-02-14T01:19:19.160Z,4.70
2023-02-14T01:21:47.395Z,4.20
2023-02-14T01:24:16.176Z,3.70
2023-02-14T01:26:44.883Z,4.00
2023-02-14T01:29:13.257Z,3.90
2023-02-14T01:31:41.702Z,4.10
2023-02-14T01:34:10.104Z,4.40
2023-02-14T01:36:40.944Z,4.30
2023-02-14T01:39:14.625Z,4.20
2023-02-14T01:41:43.547Z,3.80
2023-02-14T01:44:14.895Z,3.80
2023-02-14T01:46:44.149Z,3.60
2023-02-14T01:49:28.291Z,4.10
2023-02-14T01:52:01.452Z,3.90
2023-02-14T01:54:31.673Z,4.20
2023-02-14T01:57:02.519Z,4.10
2023-02-14T01:59:34.249Z,3.90
2023-02-14T02:02:03.603Z,4.00
2023-02-14T02:04:35.063Z,4.00
2023-02-14T02:07:07.775Z,3.70
2023-02-14T02:09:42.623Z,3.80
2023-02-14T02:12:11.088Z,3.70
2023-02-14T02:14:39.560Z,4.00
2023-02-14T02:17:49.429Z,4.00
2023-02-14T02:20:39.007Z,4.40
2023-02-14T02:23:19.620Z,3.70
2023-02-14T02:26:07.841Z,4.00
2023-02-14T02:29:27.403Z,4.10
2023-02-14T02:32:02.190Z,4.00
2023-02-14T02:34:37.859Z,4.00
2023-02-14T02:37:34.542Z,4.40
2023-02-14T02:40:12.526Z,4.00
2023-02-14T02:42:56.355Z,3.80
2023-02-14T02:45:27.071Z,4.20
2023-02-14T02:48:02.096Z,4.10
2023-02-14T02:51:07.645Z,3.90
2023-02-14T02:53:41.864Z,3.80
2023-02-14T02:56:43.853Z,4.40
2023-02-14T02:59:18.577Z,4.00
2023-02-14T03:02:00.359Z,4.10
2023-02-14T03:04:52.879Z,4.10
2023-02-14T03:07:37.622Z,4.40
2023-02-14T03:10:13.188Z,4.40
2023-02-14T03:13:19.473Z,4.80
2023-02-14T03:16:51.068Z,4.90
2023-02-14T03:20:10.611Z,5.20
2023-02-14T03:23:09.946Z,4.80
2023-02-14T03:25:54.913Z,4.50
2023-02-14T03:28:32.751Z,4.70
2023-02-14T03:31:04.841Z,5.10
2023-02-14T03:34:02.743Z,5.60
2023-02-14T03:36:35.485Z,5.40
2023-02-14T03:39:46.665Z,6.20
2023-02-14T03:42:21.665Z,4.80
2023-02-14T03:44:50.478Z,5.00
2023-02-14T03:47:21.128Z,4.70
2023-02-14T03:49:59.415Z,5.10
2023-02-14T03:52:27.886Z,6.60
2023-02-14T03:54:57.442Z,6.60
2023-02-14T03:57:29.190Z,7.00
2023-02-14T03:59:57.355Z,7.60
2023-02-14T04:02:35.334Z,6.00
2023-02-14T04:05:05.687Z,6.60
2023-02-14T04:07:35.129Z,7.40
2023-02-14T04:10:03.541Z,7.90
2023-02-14T04:12:37.922Z,6.60
2023-02-14T04:15:06.993Z,5.50
2023-02-14T04:17:55.356Z,5.60
2023-02-14T04:20:23.723Z,5.00
2023-02-14T04:22:52.025Z,5.00
2023-02-14T04:25:20.721Z,4.30
2023-02-14T04:27:49.259Z,3.90
2023-02-14T04:30:21.766Z,4.00
2023-02-14T04:32:53.605Z,5.70
2023-02-14T04:35:22.047Z,5.20
2023-02-14T04:37:50.450Z,6.30
2023-02-14T04:40:19.307Z,6.00
2023-02-14T04:42:47.886Z,4.60
2023-02-14T04:45:16.223Z,5.20
2023-02-14T04:47:44.813Z,5.50
2023-02-14T04:50:13.997Z,5.90
2023-02-14T04:52:42.835Z,5.80
2023-02-14T04:55:11.079Z,5.30
2023-02-14T04:57:39.487Z,5.40
2023-02-14T05:00:09.537Z,5.40
2023-02-14T05:02:38.937Z,6.40
2023-02-14T05:05:09.903Z,7.00
2023-02-14T05:07:38.651Z,6.60
2023-02-14T05:10:10.992Z,5.70
2023-02-14T05:15:08.034Z,6.90
2023-02-14T05:17:37.488Z,7.20
2023-02-14T05:20:07.360Z,4.80
2023-02-14T05:22:35.765Z,4.60
2023-02-14T05:25:05.336Z,4.70
2023-02-14T05:27:33.745Z,5.10
2023-02-14T05:30:02.238Z,6.20
2023-02-14T05:32:32.819Z,6.10
2023-02-14T05:35:01.396Z,6.70
2023-02-14T05:37:31.522Z,7.00
2023-02-14T05:39:59.818Z,5.30
2023-02-14T05:42:27.991Z,5.00
2023-02-14T05:45:00.696Z,5.30
2023-02-14T05:47:29.779Z,4.90
2023-02-14T05:49:58.011Z,5.70
2023-02-14T05:52:26.458Z,6.30
2023-02-14T05:54:54.787Z,5.80
2023-02-14T05:57:23.620Z,4.90
2023-02-14T05:59:52.089Z,5.40
2023-02-14T06:02:20.390Z,5.90
2023-02-14T06:04:48.745Z,5.80
2023-02-14T06:07:17.338Z,5.40
2023-02-14T06:09:45.593Z,5.20
2023-02-14T06:12:13.780Z,5.20
2023-02-14T06:14:43.102Z,5.10
2023-02-14T06:17:11.800Z,5.50
2023-02-14T06:19:43.463Z,6.20
2023-02-14T06:22:11.982Z,6.10
2023-02-14T06:24:40.292Z,6.20
2023-02-14T06:27:08.780Z,4.80
2023-02-14T06:29:37.040Z,5.40
2023-02-14T06:32:07.231Z,6.30
2023-02-14T06:34:36.595Z,6.80
2023-02-14T06:37:04.763Z,6.20
2023-02-14T06:39:33.117Z,6.30
2023-02-14T06:42:01.775Z,5.80
2023-02-14T06:44:29.989Z,4.90
2023-02-14T06:47:00.448Z,5.10
2023-02-14T06:49:28.970Z,5.30
2023-02-14T06:51:57.206Z,5.30
2023-02-14T06:54:25.677Z,5.00
2023-02-14T06:56:53.862Z,4.00
2023-02-14T06:59:22.224Z,5.00
2023-02-14T07:01:52.468Z,9.40
2023-02-14T07:04:20.802Z,11.70
2023-02-14T07:06:49.156Z,13.80
2023-02-14T07:09:18.492Z,14.80
2023-02-14T07:11:47.225Z,11.10
2023-02-14T07:14:22.384Z,13.80
2023-02-14T07:16:52.074Z,11.10
2023-02-14T07:19:20.321Z,8.30
2023-02-14T07:21:49.180Z,8.00
2023-02-14T07:24:17.924Z,8.40
2023-02-14T07:26:46.636Z,5.80
2023-02-14T07:29:16.502Z,5.30
2023-02-14T07:31:44.875Z,5.40
2023-02-14T07:34:13.811Z,5.70
2023-02-14T07:36:44.679Z,5.70
2023-02-14T07:39:13.527Z,6.10
2023-02-14T07:41:43.354Z,5.70
2023-02-14T07:44:14.942Z,6.10
2023-02-14T07:46:43.345Z,4.80
2023-02-14T07:49:12.068Z,4.50
2023-02-14T07:51:40.734Z,4.20
2023-02-14T07:54:11.952Z,5.40
2023-02-14T07:56:40.346Z,4.10
2023-02-14T07:59:10.470Z,4.60
2023-02-14T08:01:40.256Z,4.30
2023-02-14T08:04:10.726Z,3.90
2023-02-14T08:06:43.213Z,3.30
2023-02-14T08:09:12.058Z,3.00
2023-02-14T08:12:00.850Z,3.10
2023-02-14T08:14:30.446Z,3.50
2023-02-14T08:16:59.886Z,3.60
2023-02-14T08:19:30.215Z,3.20
2023-02-14T08:21:58.620Z,3.60
2023-02-14T08:24:27.014Z,3.20
2023-02-14T08:26:55.401Z,3.50
2023-02-14T08:29:23.618Z,2.80
2023-02-14T08:31:53.096Z,3.20
2023-02-14T08:34:21.532Z,3.20
2023-02-14T08:36:52.141Z,2.90
2023-02-14T08:39:24.246Z,2.90
2023-02-14T08:41:52.410Z,2.80
2023-02-14T08:44:21.883Z,3.20
2023-02-14T08:46:51.244Z,3.30
2023-02-14T08:49:19.745Z,3.80
2023-02-14T08:51:48.014Z,3.50
2023-02-14T08:54:16.481Z,2.80
2023-02-14T08:56:44.767Z,2.80
2023-02-14T08:59:13.215Z,3.20
2023-02-14T09:01:43.050Z,2.90
2023-02-14T09:04:11.861Z,3.10
2023-02-14T09:06:40.219Z,3.60
2023-02-14T09:09:08.522Z,4.60
2023-02-14T09:11:36.761Z,4.80
2023-02-14T09:14:05.487Z,4.50
2023-02-14T09:16:34.197Z,3.40
2023-02-14T09:19:02.578Z,3.30
2023-02-14T09:21:30.994Z,3.10
2023-02-14T09:24:19.209Z,2.80
2023-02-14T09:26:49.194Z,3.50
2023-02-14T09:29:20.121Z,2.60
2023-02-14T09:31:58.238Z,3.00
2023-02-14T09:34:27.693Z,3.00
2023-02-14T09:36:56.075Z,3.10
2023-02-14T09:39:26.065Z,3.00
2023-02-14T09:42:08.608Z,3.30
2023-02-14T09:44:51.808Z,3.20
2023-02-14T09:47:37.241Z,2.80
2023-02-14T09:50:07.137Z,2.80
2023-02-14T09:52:35.812Z,2.60
2023-02-14T09:55:04.440Z,2.80
2023-02-14T09:57:39.624Z,3.10
2023-02-14T10:00:20.495Z,3.00
2023-02-14T10:02:56.809Z,2.50
2023-02-14T10:05:35.166Z,2.50
2023-02-14T10:08:12.656Z,2.80
2023-02-14T10:10:43.378Z,2.60
2023-02-14T10:13:22.878Z,2.40
2023-02-14T10:16:03.410Z,2.90
2023-02-14T10:18:42.935Z,3.10
2023-02-14T10:21:15.725Z,2.70
2023-02-14T10:26:25.413Z,2.90
2023-02-14T10:28:54.450Z,2.70
2023-02-14T10:31:26.028Z,2.60
2023-02-14T10:33:57.877Z,2.60
2023-02-14T10:36:41.805Z,2.40
2023-02-14T10:39:20.038Z,3.10
2023-02-14T10:41:53.456Z,4.00
2023-02-14T10:44:30.809Z,3.90
2023-02-14T10:47:20.355Z,3.40
2023-02-14T10:50:11.486Z,2.30
2023-02-14T10:53:05.260Z,2.20
2023-02-14T10:55:44.635Z,2.40
2023-02-14T10:58:16.613Z,2.50
2023-02-14T11:01:01.081Z,2.00
2023-02-14T11:03:30.507Z,2.00
2023-02-14T11:05:59.147Z,2.40
2023-02-14T11:08:37.410Z,2.00
2023-02-14T11:11:15.275Z,2.40
2023-02-14T11:13:44.464Z,8.30
2023-02-14T11:16:32.654Z,2.70
2023-02-14T11:19:20.832Z,2.90
2023-02-14T11:21:51.076Z,3.10
2023-02-14T11:24:26.553Z,2.80
2023-02-14T11:27:00.647Z,2.80
2023-02-14T11:29:53.165Z,2.30
2023-02-14T11:32:31.216Z,2.00
2023-02-14T11:35:00.763Z,2.00
2023-02-14T11:37:37.168Z,1.90
2023-02-14T11:40:06.407Z,1.70
2023-02-14T11:42:43.708Z,2.90
2023-02-14T11:45:33.386Z,2.60
2023-02-14T11:48:22.334Z,2.90
2023-02-14T11:51:16.889Z,2.70
2023-02-14T11:53:46.077Z,2.80
2023-02-14T11:56:15.508Z,2.70
2023-02-14T11:58:58.298Z,2.20
2023-02-14T12:01:32.182Z,2.00
2023-02-14T12:04:03.577Z,2.40
2023-02-14T12:06:33.889Z,2.40
2023-02-14T12:09:24.977Z,2.80
2023-02-14T12:11:57.765Z,2.70
2023-02-14T12:14:29.548Z,2.50
2023-02-14T12:17:34.415Z,2.50
2023-02-14T12:20:06.191Z,3.10
2023-02-14T12:23:03.926Z,3.30
2023-02-14T12:25:50.200Z,2.80
2023-02-14T12:28:46.209Z,2.60
2023-02-14T12:31:15.525Z,2.90
2023-02-14T12:33:46.369Z,2.70
2023-02-14T12:36:33.589Z,2.90
2023-02-14T12:39:43.317Z,2.90
2023-02-14T12:42:32.834Z,2.30
2023-02-14T12:45:01.033Z,2.30
2023-02-14T12:47:55.729Z,2.30
2023-02-14T12:50:33.858Z,2.70
2023-02-14T12:53:20.860Z,2.60
2023-02-14T12:56:00.543Z,2.30
2023-02-14T12:58:47.543Z,2.80
2023-02-14T13:01:39.030Z,2.90
2023-02-14T13:04:49.565Z,2.30
2023-02-14T13:07:39.184Z,2.10
2023-02-14T13:10:42.964Z,2.30
2023-02-14T13:13:26.224Z,2.50
2023-02-14T13:16:07.619Z,2.60
2023-02-14T13:18:44.635Z,2.50
2023-02-14T13:21:15.357Z,2.30
2023-02-14T13:23:46.569Z,2.80
2023-02-14T13:26:18.022Z,2.60
2023-02-14T13:28:57.098Z,2.50
2023-02-14T13:31:25.855Z,2.70
2023-02-14T13:34:07.062Z,2.70
2023-02-14T13:36:36.058Z,2.50
2023-02-14T13:39:04.972Z,2.40
2023-02-14T13:41:34.498Z,2.80
2023-02-14T13:44:05.579Z,2.90
2023-02-14T13:46:34.175Z,2.80
2023-02-14T13:49:25.773Z,3.60
2023-02-14T13:51:57.498Z,3.80
2023-02-14T13:54:48.732Z,3.40
2023-02-14T13:57:42.016Z,3.60
2023-02-14T14:00:22.678Z,3.30
2023-02-14T14:02:51.745Z,3.00
2023-02-14T14:05:40.623Z,2.50
2023-02-14T14:08:21.324Z,3.70
2023-02-14T14:10:54.400Z,4.00
2023-02-14T14:13:42.120Z,3.70
2023-02-14T14:16:28.598Z,3.20
2023-02-14T14:19:00.254Z,2.70
2023-02-14T14:21:39.168Z,3.30
2023-02-14T14:24:26.026Z,3.40
2023-02-14T14:27:20.964Z,3.20
2023-02-14T14:29:51.864Z,2.70
2023-02-14T14:32:27.157Z,2.60
2023-02-14T14:35:08.415Z,3.20
2023-02-14T14:37:45.338Z,2.20
2023-02-14T14:40:24.614Z,2.60
2023-02-14T14:42:53.310Z,2.20
2023-02-14T14:45:26.481Z,2.40
2023-02-14T14:47:58.042Z,2.40
2023-02-14T14:50:31.332Z,2.90
2023-02-14T14:53:05.747Z,3.10
2023-02-14T14:55:36.575Z,2.80
2023-02-14T14:58:06.884Z,3.50
2023-02-14T15:00:38.514Z,3.30
2023-02-14T15:03:14.913Z,3.30
2023-02-14T15:05:45.376Z,2.90
2023-02-14T15:08:31.075Z,2.90
2023-02-14T15:11:08.346Z,2.80
2023-02-14T15:13:54.903Z,2.80
2023-02-14T15:16:33.162Z,2.60
2023-02-14T15:19:11.767Z,2.90
2023-02-14T15:21:44.714Z,2.80
2023-02-14T15:24:18.358Z,3.10
2023-02-14T15:26:47.963Z,3.40
2023-02-14T15:29:35.436Z,3.20
2023-02-14T15:32:04.555Z,3.90
2023-02-14T15:34:36.806Z,3.30
2023-02-14T15:37:07.209Z,2.90
2023-02-14T15:39:37.772Z,3.80
2023-02-14T15:42:06.514Z,3.80
2023-02-14T15:44:34.917Z,3.00
2023-02-14T15:47:03.998Z,3.60
2023-02-14T15:49:35.007Z,3.60
2023-02-14T15:52:04.973Z,3.00
2023-02-14T15:54:35.903Z,3.40
2023-02-14T15:57:05.425Z,2.90
2023-02-14T15:59:34.869Z,3.20
2023-02-14T16:02:29.216Z,3.50
2023-02-14T16:05:18.763Z,4.50
2023-02-14T16:08:06.456Z,3.80
2023-02-14T16:10:38.118Z,3.80
2023-02-14T16:13:19.736Z,3.30
2023-02-14T16:16:01.300Z,3.00
2023-02-14T16:18:33.686Z,2.70
2023-02-14T16:21:20.533Z,2.80
2023-02-14T16:24:10.797Z,3.10
2023-02-14T16:26:41.206Z,2.90
2023-02-14T16:29:11.767Z,2.80
2023-02-14T16:32:06.212Z,3.90
2023-02-14T16:34:33.532Z,3.80
2023-02-14T16:37:10.160Z,3.80
2023-02-14T16:39:40.333Z,3.10
2023-02-14T16:42:13.603Z,2.70
2023-02-14T16:44:41.778Z,3.40
2023-02-14T16:47:14.113Z,3.90
2023-02-14T16:49:42.399Z,2.40
2023-02-14T16:52:16.340Z,3.20
2023-02-14T16:54:44.849Z,3.40
2023-02-14T16:57:27.912Z,2.80
2023-02-14T16:59:57.092Z,3.50
2023-02-14T17:02:28.778Z,3.40
2023-02-14T17:04:57.272Z,3.40
2023-02-14T17:07:25.788Z,3.40
2023-02-14T17:09:58.149Z,3.40
2023-02-14T17:12:28.969Z,3.40
2023-02-14T17:15:00.156Z,3.40
2023-02-14T17:17:29.538Z,3.60
2023-02-14T17:19:58.282Z,3.60
2023-02-14T17:22:27.237Z,3.20
2023-02-14T17:24:57.176Z,3.30
2023-02-14T17:27:26.310Z,4.40
2023-02-14T17:29:55.081Z,5.10
2023-02-14T17:32:49.669Z,6.00
2023-02-14T17:35:18.132Z,5.30
2023-02-14T17:37:46.991Z,4.00
2023-02-14T17:40:15.894Z,3.70
2023-02-14T17:42:46.085Z,4.20
2023-02-14T17:45:15.443Z,3.90
2023-02-14T17:47:45.361Z,4.10
2023-02-14T17:50:14.722Z,4.20
2023-02-14T17:52:44.194Z,3.80
2023-02-14T17:55:13.176Z,3.60
2023-02-14T17:57:42.250Z,3.80
2023-02-14T18:00:16.543Z,4.70
2023-02-14T18:02:45.041Z,3.80
2023-02-14T18:05:13.299Z,4.70
2023-02-14T18:07:43.268Z,3.90
2023-02-14T18:10:12.706Z,3.80
2023-02-14T18:12:41.266Z,3.70
2023-02-14T18:15:11.127Z,3.60
2023-02-14T18:17:39.495Z,5.90
2023-02-14T18:20:09.350Z,5.10
2023-02-14T18:22:37.914Z,4.20
2023-02-14T18:25:07.761Z,3.80
2023-02-14T18:27:36.029Z,3.80
2023-02-14T18:30:06.655Z,4.00
2023-02-14T18:32:35.961Z,4.10
2023-02-14T18:35:04.193Z,3.60
2023-02-14T18:37:33.128Z,3.40
2023-02-14T18:40:01.437Z,3.80
2023-02-14T18:42:30.081Z,4.30
2023-02-14T18:44:58.274Z,5.60
2023-02-14T18:47:27.086Z,4.20
2023-02-14T18:49:58.084Z,3.30
2023-02-14T18:52:26.346Z,4.40
2023-02-14T18:54:56.752Z,4.60
2023-02-14T18:57:25.115Z,5.10
2023-02-14T18:59:53.893Z,5.10
2023-02-14T19:02:22.148Z,6.10
2023-02-14T19:04:50.641Z,4.80
2023-02-14T19:07:18.980Z,4.90
2023-02-14T19:09:47.939Z,6.00
2023-02-14T19:12:16.729Z,6.30
2023-02-14T19:14:46.386Z,6.40
2023-02-14T19:17:17.394Z,8.50
2023-02-14T19:19:46.529Z,9.90
2023-02-14T19:22:14.733Z,7.30
2023-02-14T19:24:45.131Z,6.20
2023-02-14T19:27:14.182Z,6.10
2023-02-14T19:29:43.124Z,5.50
2023-02-14T19:32:11.920Z,5.70
2023-02-14T19:34:40.987Z,5.60
2023-02-14T19:37:09.298Z,5.80
2023-02-14T19:39:38.352Z,5.10
2023-02-14T19:42:07.971Z,5.30
2023-02-14T19:44:37.648Z,5.10
2023-02-14T19:47:19.261Z,6.40
2023-02-14T19:49:54.119Z,6.30
2023-02-14T19:52:26.774Z,5.30
2023-02-14T19:54:58.048Z,5.30
2023-02-14T19:57:26.657Z,4.60
2023-02-14T19:59:57.017Z,4.50
2023-02-14T20:02:25.727Z,4.50
2023-02-14T20:04:58.976Z,4.50
2023-02-14T20:07:28.119Z,4.20
2023-02-14T20:09:56.283Z,4.90
2023-02-14T20:12:24.713Z,5.20
2023-02-14T20:14:54.671Z,6.40
2023-02-14T20:17:22.935Z,7.30
2023-02-14T20:19:52.869Z,5.30
2023-02-14T20:22:24.662Z,5.30
2023-02-14T20:24:53.137Z,4.80
2023-02-14T20:27:23.115Z,4.70
2023-02-14T20:29:52.158Z,4.20
2023-02-14T20:32:20.716Z,4.70
2023-02-14T20:34:50.612Z,5.00
2023-02-14T20:37:18.985Z,6.50
2023-02-14T20:39:47.781Z,5.00
2023-02-14T20:42:16.168Z,5.00
2023-02-14T20:44:45.512Z,4.50
2023-02-14T20:47:14.288Z,4.30
2023-02-14T20:49:44.868Z,4.10
2023-02-14T20:52:13.220Z,3.30
2023-02-14T20:54:41.833Z,3.60
2023-02-14T20:57:10.083Z,3.20
2023-02-14T20:59:44.405Z,4.00
2023-02-14T21:02:12.894Z,3.40
2023-02-14T21:04:41.616Z,3.90
2023-02-14T21:07:10.572Z,4.00
2023-02-14T21:09:39.916Z,4.60
2023-02-14T21:12:08.945Z,4.50
2023-02-14T21:14:37.615Z,4.10
2023-02-14T21:17:06.193Z,3.60
2023-02-14T21:19:34.805Z,3.70
2023-02-14T21:22:06.802Z,3.90
2023-02-14T21:24:35.681Z,3.90
2023-02-14T21:27:11.490Z,3.90
2023-02-14T21:29:40.089Z,4.00
2023-02-14T21:32:09.562Z,4.00
2023-02-14T21:34:38.089Z,3.70
2023-02-14T21:37:06.573Z,3.40
2023-02-14T21:39:38.148Z,3.40
2023-02-14T21:42:07.818Z,3.40
2023-02-14T21:44:55.580Z,3.90
2023-02-14T21:47:24.258Z,3.00
2023-02-14T21:50:11.478Z,3.60
2023-02-14T21:52:39.930Z,2.90
2023-02-14T21:55:08.810Z,3.10
2023-02-14T21:57:37.430Z,3.00
2023-02-14T22:00:06.833Z,3.10
2023-02-14T22:02:39.953Z,2.80
2023-02-14T22:05:08.566Z,2.70
2023-02-14T22:07:37.096Z,2.90
2023-02-14T22:10:06.491Z,2.70
2023-02-14T22:12:35.466Z,2.80
2023-02-14T22:15:04.449Z,3.00
2023-02-14T22:17:33.148Z,2.90
2023-02-14T22:20:01.473Z,2.90
2023-02-14T22:22:29.932Z,3.10
2023-02-14T22:24:58.162Z,2.80
2023-02-14T22:27:26.420Z,3.00
2023-02-14T22:29:55.796Z,3.40
2023-02-14T22:32:24.099Z,3.20
2023-02-14T22:34:52.386Z,3.70
2023-02-14T22:37:20.684Z,3.10
2023-02-14T22:39:49.860Z,3.50
2023-02-14T22:42:18.062Z,3.80
2023-02-14T22:44:47.612Z,3.90
2023-02-14T22:47:15.894Z,3.20
2023-02-14T22:49:44.526Z,3.40
2023-02-14T22:52:13.166Z,3.20
2023-02-14T22:54:41.907Z,3.10
2023-02-14T22:57:10.526Z,4.40
2023-02-14T22:59:40.250Z,3.20
2023-02-14T23:02:10.173Z,3.50
2023-02-14T23:04:39.284Z,2.90
2023-02-14T23:07:11.269Z,2.80
2023-02-14T23:09:39.635Z,3.00
2023-02-14T23:12:31.650Z,3.00
2023-02-14T23:15:19.735Z,2.80
2023-02-14T23:18:06.871Z,2.60
2023-02-14T23:20:54.714Z,2.40
2023-02-14T23:23:22.927Z,2.70
2023-02-14T23:25:51.337Z,2.70
2023-02-14T23:28:20.692Z,3.10
2023-02-14T23:30:49.605Z,3.00
2023-02-14T23:33:18.142Z,3.30
2023-02-14T23:35:47.033Z,3.30
2023-02-14T23:38:15.468Z,2.90
2023-02-14T23:41:02.515Z,3.00
2023-02-14T23:43:31.564Z,2.70
2023-02-14T23:46:01.077Z,2.90
2023-02-14T23:48:30.053Z,2.90
2023-02-14T23:51:01.464Z,2.60
2023-02-14T23:53:29.991Z,2.40
2023-02-14T23:56:02.831Z,2.80
2023-02-14T23:58:31.847Z,2.70
